sensor_id;sensor_type;location;lat;lon;timestamp;P1;durP1;ratioP1;P2;durP2;ratioP2
8986;SDS011;4529;51.360;12.474;2023-03-14T00:00:11;1.10;;;1.10;;
8986;SDS011;4529;51.360;12.474;2023-03-14T00:05:14;1.27;;;1.17;;
8986;SDS011;4529;51.360;12.474;2023-03-14T00:10:18;1.40;;;1.30;;
8986;SDS011;4529;51.360;12.474;2023-03-14T00:15:22;1.53;;;1.17;;
8986;SDS011;4529;51.360;12.474;2023-03-14T00:20:26;1.20;;;1.10;;
8986;SDS011;4529;51.360;12.474;2023-03-14T00:25:34;1.10;;;1.10;;
8986;SDS011;4529;51.360;12.474;2023-03-14T00:30:37;0.97;;;0.97;;
8986;SDS011;4529;51.360;12.474;2023-03-14T00:35:40;1.43;;;1.07;;
8986;SDS011;4529;51.360;12.474;2023-03-14T00:40:43;1.83;;;1.13;;
8986;SDS011;4529;51.360;12.474;2023-03-14T00:45:51;1.03;;;1.03;;
8986;SDS011;4529;51.360;12.474;2023-03-14T00:50:54;1.20;;;1.10;;
8986;SDS011;4529;51.360;12.474;2023-03-14T00:56:01;1.10;;;1.10;;
8986;SDS011;4529;51.360;12.474;2023-03-14T01:01:09;0.93;;;0.93;;
8986;SDS011;4529;51.360;12.474;2023-03-14T01:06:14;1.10;;;1.10;;
8986;SDS011;4529;51.360;12.474;2023-03-14T01:11:19;1.97;;;1.13;;
8986;SDS011;4529;51.360;12.474;2023-03-14T01:16:22;1.10;;;1.00;;
8986;SDS011;4529;51.360;12.474;2023-03-14T01:21:26;1.87;;;1.00;;
8986;SDS011;4529;51.360;12.474;2023-03-14T01:26:31;1.17;;;1.07;;
8986;SDS011;4529;51.360;12.474;2023-03-14T01:31:34;0.93;;;0.90;;
8986;SDS011;4529;51.360;12.474;2023-03-14T01:36:37;1.27;;;0.90;;
8986;SDS011;4529;51.360;12.474;2023-03-14T01:41:41;0.80;;;0.80;;
8986;SDS011;4529;51.360;12.474;2023-03-14T01:46:45;0.70;;;0.70;;
8986;SDS011;4529;51.360;12.474;2023-03-14T01:51:56;1.13;;;0.83;;
8986;SDS011;4529;51.360;12.474;2023-03-14T02:02:19;0.90;;;0.90;;
8986;SDS011;4529;51.360;12.474;2023-03-14T02:07:25;0.90;;;0.90;;
8986;SDS011;4529;51.360;12.474;2023-03-14T02:12:36;0.90;;;0.90;;
8986;SDS011;4529;51.360;12.474;2023-03-14T02:17:40;1.00;;;0.90;;
8986;SDS011;4529;51.360;12.474;2023-03-14T02:22:44;0.90;;;0.90;;
8986;SDS011;4529;51.360;12.474;2023-03-14T02:27:48;1.00;;;1.00;;
8986;SDS011;4529;51.360;12.474;2023-03-14T02:32:56;0.70;;;0.70;;
8986;SDS011;4529;51.360;12.474;2023-03-14T02:38:10;0.83;;;0.83;;
8986;SDS011;4529;51.360;12.474;2023-03-14T02:43:16;0.70;;;0.70;;
8986;SDS011;4529;51.360;12.474;2023-03-14T02:48:21;0.77;;;0.77;;
8986;SDS011;4529;51.360;12.474;2023-03-14T02:53:34;0.70;;;0.70;;
8986;SDS011;4529;51.360;12.474;2023-03-14T02:58:37;1.33;;;0.93;;
8986;SDS011;4529;51.360;12.474;2023-03-14T03:03:41;0.83;;;0.80;;
8986;SDS011;4529;51.360;12.474;2023-03-14T03:08:45;0.80;;;0.80;;
8986;SDS011;4529;51.360;12.474;2023-03-14T03:13:49;0.77;;;0.77;;
8986;SDS011;4529;51.360;12.474;2023-03-14T03:18:54;1.70;;;0.90;;
8986;SDS011;4529;51.360;12.474;2023-03-14T03:23:57;1.40;;;0.90;;
8986;SDS011;4529;51.360;12.474;2023-03-14T03:29:01;2.03;;;1.00;;
8986;SDS011;4529;51.360;12.474;2023-03-14T03:34:05;1.03;;;0.87;;
8986;SDS011;4529;51.360;12.474;2023-03-14T03:39:09;0.90;;;0.90;;
8986;SDS011;4529;51.360;12.474;2023-03-14T03:44:14;1.90;;;0.80;;
8986;SDS011;4529;51.360;12.474;2023-03-14T03:49:18;0.77;;;0.77;;
8986;SDS011;4529;51.360;12.474;2023-03-14T03:54:34;1.00;;;1.00;;
8986;SDS011;4529;51.360;12.474;2023-03-14T03:59:37;1.40;;;0.83;;
8986;SDS011;4529;51.360;12.474;2023-03-14T04:04:41;3.37;;;0.90;;
8986;SDS011;4529;51.360;12.474;2023-03-14T04:09:44;0.97;;;0.83;;
8986;SDS011;4529;51.360;12.474;2023-03-14T04:14:48;1.07;;;1.00;;
8986;SDS011;4529;51.360;12.474;2023-03-14T04:19:53;1.97;;;1.00;;
8986;SDS011;4529;51.360;12.474;2023-03-14T04:25:02;0.93;;;0.80;;
8986;SDS011;4529;51.360;12.474;2023-03-14T04:30:05;1.57;;;0.90;;
8986;SDS011;4529;51.360;12.474;2023-03-14T04:35:09;1.40;;;1.00;;
8986;SDS011;4529;51.360;12.474;2023-03-14T04:40:12;1.23;;;1.03;;
8986;SDS011;4529;51.360;12.474;2023-03-14T04:45:16;1.47;;;0.83;;
8986;SDS011;4529;51.360;12.474;2023-03-14T04:50:20;1.10;;;1.00;;
8986;SDS011;4529;51.360;12.474;2023-03-14T04:55:25;1.57;;;1.10;;
8986;SDS011;4529;51.360;12.474;2023-03-14T05:00:29;1.50;;;1.10;;
8986;SDS011;4529;51.360;12.474;2023-03-14T05:05:34;0.77;;;0.73;;
8986;SDS011;4529;51.360;12.474;2023-03-14T05:10:37;1.20;;;1.10;;
8986;SDS011;4529;51.360;12.474;2023-03-14T05:15:41;1.20;;;0.90;;
8986;SDS011;4529;51.360;12.474;2023-03-14T05:20:44;0.83;;;0.80;;
8986;SDS011;4529;51.360;12.474;2023-03-14T05:25:48;3.90;;;1.60;;
8986;SDS011;4529;51.360;12.474;2023-03-14T05:30:51;2.77;;;1.53;;
8986;SDS011;4529;51.360;12.474;2023-03-14T05:35:55;2.30;;;1.33;;
8986;SDS011;4529;51.360;12.474;2023-03-14T05:40:58;1.47;;;1.30;;
8986;SDS011;4529;51.360;12.474;2023-03-14T05:46:02;1.80;;;1.00;;
8986;SDS011;4529;51.360;12.474;2023-03-14T05:51:06;3.50;;;1.37;;
8986;SDS011;4529;51.360;12.474;2023-03-14T05:56:09;3.00;;;1.10;;
8986;SDS011;4529;51.360;12.474;2023-03-14T06:01:13;1.53;;;1.20;;
8986;SDS011;4529;51.360;12.474;2023-03-14T06:06:17;2.63;;;1.40;;
8986;SDS011;4529;51.360;12.474;2023-03-14T06:11:21;5.67;;;1.60;;
8986;SDS011;4529;51.360;12.474;2023-03-14T06:16:25;2.67;;;1.50;;
8986;SDS011;4529;51.360;12.474;2023-03-14T06:21:29;2.90;;;1.20;;
8986;SDS011;4529;51.360;12.474;2023-03-14T06:26:33;5.73;;;1.40;;
8986;SDS011;4529;51.360;12.474;2023-03-14T06:31:36;2.43;;;1.30;;
8986;SDS011;4529;51.360;12.474;2023-03-14T06:36:40;1.83;;;1.17;;
8986;SDS011;4529;51.360;12.474;2023-03-14T06:41:43;2.50;;;1.57;;
8986;SDS011;4529;51.360;12.474;2023-03-14T06:46:47;2.40;;;1.00;;
8986;SDS011;4529;51.360;12.474;2023-03-14T06:51:51;1.33;;;1.10;;
8986;SDS011;4529;51.360;12.474;2023-03-14T06:56:56;2.13;;;1.30;;
8986;SDS011;4529;51.360;12.474;2023-03-14T07:02:00;3.60;;;0.93;;
8986;SDS011;4529;51.360;12.474;2023-03-14T07:07:04;2.03;;;0.80;;
8986;SDS011;4529;51.360;12.474;2023-03-14T07:12:08;1.43;;;1.03;;
8986;SDS011;4529;51.360;12.474;2023-03-14T07:17:12;1.40;;;1.10;;
8986;SDS011;4529;51.360;12.474;2023-03-14T07:22:16;1.47;;;1.10;;
8986;SDS011;4529;51.360;12.474;2023-03-14T07:27:20;1.67;;;1.10;;
8986;SDS011;4529;51.360;12.474;2023-03-14T07:32:24;1.63;;;1.10;;
8986;SDS011;4529;51.360;12.474;2023-03-14T07:37:29;1.40;;;1.20;;
8986;SDS011;4529;51.360;12.474;2023-03-14T07:42:33;3.23;;;1.20;;
8986;SDS011;4529;51.360;12.474;2023-03-14T07:47:37;1.30;;;1.20;;
8986;SDS011;4529;51.360;12.474;2023-03-14T07:52:40;1.47;;;1.13;;
8986;SDS011;4529;51.360;12.474;2023-03-14T07:57:44;1.63;;;1.10;;
8986;SDS011;4529;51.360;12.474;2023-03-14T08:02:47;1.20;;;1.17;;
8986;SDS011;4529;51.360;12.474;2023-03-14T08:07:51;2.00;;;1.40;;
8986;SDS011;4529;51.360;12.474;2023-03-14T08:12:56;1.00;;;1.00;;
8986;SDS011;4529;51.360;12.474;2023-03-14T08:18:00;1.70;;;1.07;;
8986;SDS011;4529;51.360;12.474;2023-03-14T08:23:09;1.20;;;1.10;;
8986;SDS011;4529;51.360;12.474;2023-03-14T08:28:12;2.07;;;1.10;;
8986;SDS011;4529;51.360;12.474;2023-03-14T08:33:16;1.77;;;1.03;;
8986;SDS011;4529;51.360;12.474;2023-03-14T08:38:19;3.67;;;1.40;;
8986;SDS011;4529;51.360;12.474;2023-03-14T08:43:23;1.63;;;1.00;;
8986;SDS011;4529;51.360;12.474;2023-03-14T08:48:27;1.80;;;1.17;;
8986;SDS011;4529;51.360;12.474;2023-03-14T08:53:37;0.80;;;0.80;;
8986;SDS011;4529;51.360;12.474;2023-03-14T08:58:40;1.40;;;1.20;;
8986;SDS011;4529;51.360;12.474;2023-03-14T09:03:44;1.60;;;1.10;;
8986;SDS011;4529;51.360;12.474;2023-03-14T09:08:47;1.00;;;0.80;;
8986;SDS011;4529;51.360;12.474;2023-03-14T09:13:51;1.10;;;1.00;;
8986;SDS011;4529;51.360;12.474;2023-03-14T09:18:55;1.43;;;0.83;;
8986;SDS011;4529;51.360;12.474;2023-03-14T09:23:59;0.97;;;0.87;;
8986;SDS011;4529;51.360;12.474;2023-03-14T09:29:04;1.93;;;0.90;;
8986;SDS011;4529;51.360;12.474;2023-03-14T09:34:13;0.90;;;0.90;;
8986;SDS011;4529;51.360;12.474;2023-03-14T09:39:17;1.23;;;1.00;;
8986;SDS011;4529;51.360;12.474;2023-03-14T09:44:31;1.00;;;1.00;;
8986;SDS011;4529;51.360;12.474;2023-03-14T09:49:32;3.73;;;1.20;;
8986;SDS011;4529;51.360;12.474;2023-03-14T09:54:52;1.20;;;1.00;;
8986;SDS011;4529;51.360;12.474;2023-03-14T09:59:54;2.37;;;1.00;;
8986;SDS011;4529;51.360;12.474;2023-03-14T10:04:56;1.33;;;0.90;;
8986;SDS011;4529;51.360;12.474;2023-03-14T10:10:00;0.77;;;0.77;;
8986;SDS011;4529;51.360;12.474;2023-03-14T10:15:06;1.00;;;1.00;;
8986;SDS011;4529;51.360;12.474;2023-03-14T10:21:01;1.67;;;1.00;;
8986;SDS011;4529;51.360;12.474;2023-03-14T10:25:44;1.10;;;0.97;;
8986;SDS011;4529;51.360;12.474;2023-03-14T10:30:45;0.90;;;0.90;;
8986;SDS011;4529;51.360;12.474;2023-03-14T10:36:14;1.57;;;1.00;;
8986;SDS011;4529;51.360;12.474;2023-03-14T10:41:30;0.63;;;0.63;;
8986;SDS011;4529;51.360;12.474;2023-03-14T10:46:31;3.10;;;0.83;;
8986;SDS011;4529;51.360;12.474;2023-03-14T10:51:36;1.13;;;0.70;;
8986;SDS011;4529;51.360;12.474;2023-03-14T10:56:39;0.93;;;0.80;;
8986;SDS011;4529;51.360;12.474;2023-03-14T11:01:55;0.87;;;0.87;;
8986;SDS011;4529;51.360;12.474;2023-03-14T11:12:55;0.87;;;0.70;;
8986;SDS011;4529;51.360;12.474;2023-03-14T11:18:19;2.17;;;0.83;;
8986;SDS011;4529;51.360;12.474;2023-03-14T11:23:30;0.90;;;0.80;;
8986;SDS011;4529;51.360;12.474;2023-03-14T11:39:36;0.77;;;0.77;;
8986;SDS011;4529;51.360;12.474;2023-03-14T11:44:44;0.70;;;0.70;;
8986;SDS011;4529;51.360;12.474;2023-03-14T11:50:01;0.70;;;0.70;;
8986;SDS011;4529;51.360;12.474;2023-03-14T11:55:07;0.70;;;0.70;;
8986;SDS011;4529;51.360;12.474;2023-03-14T12:00:35;2.83;;;0.73;;
8986;SDS011;4529;51.360;12.474;2023-03-14T12:05:50;0.60;;;0.60;;
8986;SDS011;4529;51.360;12.474;2023-03-14T12:11:00;0.90;;;0.63;;
8986;SDS011;4529;51.360;12.474;2023-03-14T12:16:06;1.10;;;0.70;;
8986;SDS011;4529;51.360;12.474;2023-03-14T12:21:10;1.07;;;0.70;;
8986;SDS011;4529;51.360;12.474;2023-03-14T12:41:51;0.70;;;0.70;;
8986;SDS011;4529;51.360;12.474;2023-03-14T12:46:58;0.83;;;0.73;;
8986;SDS011;4529;51.360;12.474;2023-03-14T12:52:29;0.70;;;0.70;;
8986;SDS011;4529;51.360;12.474;2023-03-14T12:57:50;0.60;;;0.60;;
8986;SDS011;4529;51.360;12.474;2023-03-14T13:03:13;0.70;;;0.60;;
8986;SDS011;4529;51.360;12.474;2023-03-14T13:08:15;0.60;;;0.60;;
8986;SDS011;4529;51.360;12.474;2023-03-14T13:13:20;1.23;;;0.70;;
8986;SDS011;4529;51.360;12.474;2023-03-14T13:18:36;1.67;;;0.83;;
8986;SDS011;4529;51.360;12.474;2023-03-14T13:23:38;2.57;;;0.90;;
8986;SDS011;4529;51.360;12.474;2023-03-14T13:28:42;0.50;;;0.50;;
8986;SDS011;4529;51.360;12.474;2023-03-14T13:33:46;0.50;;;0.50;;
8986;SDS011;4529;51.360;12.474;2023-03-14T13:38:57;2.20;;;0.70;;
8986;SDS011;4529;51.360;12.474;2023-03-14T13:44:16;0.73;;;0.53;;
8986;SDS011;4529;51.360;12.474;2023-03-14T13:49:22;0.60;;;0.60;;
8986;SDS011;4529;51.360;12.474;2023-03-14T13:54:26;0.60;;;0.60;;
8986;SDS011;4529;51.360;12.474;2023-03-14T13:59:33;0.63;;;0.63;;
8986;SDS011;4529;51.360;12.474;2023-03-14T14:04:36;0.60;;;0.60;;
8986;SDS011;4529;51.360;12.474;2023-03-14T14:09:40;0.63;;;0.63;;
8986;SDS011;4529;51.360;12.474;2023-03-14T14:19:59;0.60;;;0.60;;
8986;SDS011;4529;51.360;12.474;2023-03-14T14:25:04;0.43;;;0.43;;
8986;SDS011;4529;51.360;12.474;2023-03-14T14:35:32;0.50;;;0.50;;
8986;SDS011;4529;51.360;12.474;2023-03-14T14:40:36;0.50;;;0.50;;
8986;SDS011;4529;51.360;12.474;2023-03-14T14:45:40;0.67;;;0.67;;
8986;SDS011;4529;51.360;12.474;2023-03-14T14:55:51;0.60;;;0.60;;
8986;SDS011;4529;51.360;12.474;2023-03-14T15:00:58;0.60;;;0.60;;
8986;SDS011;4529;51.360;12.474;2023-03-14T15:06:15;0.50;;;0.50;;
8986;SDS011;4529;51.360;12.474;2023-03-14T15:11:19;0.70;;;0.70;;
8986;SDS011;4529;51.360;12.474;2023-03-14T15:16:23;1.27;;;0.80;;
8986;SDS011;4529;51.360;12.474;2023-03-14T15:21:26;1.07;;;0.83;;
8986;SDS011;4529;51.360;12.474;2023-03-14T15:26:29;0.67;;;0.67;;
8986;SDS011;4529;51.360;12.474;2023-03-14T15:31:33;0.57;;;0.57;;
8986;SDS011;4529;51.360;12.474;2023-03-14T15:36:37;0.60;;;0.60;;
8986;SDS011;4529;51.360;12.474;2023-03-14T15:41:41;0.70;;;0.70;;
8986;SDS011;4529;51.360;12.474;2023-03-14T15:46:45;0.50;;;0.50;;
8986;SDS011;4529;51.360;12.474;2023-03-14T15:51:49;0.50;;;0.50;;
8986;SDS011;4529;51.360;12.474;2023-03-14T15:57:00;0.60;;;0.60;;
8986;SDS011;4529;51.360;12.474;2023-03-14T16:02:03;0.80;;;0.70;;
8986;SDS011;4529;51.360;12.474;2023-03-14T16:07:07;0.87;;;0.70;;
8986;SDS011;4529;51.360;12.474;2023-03-14T16:12:11;0.70;;;0.70;;
8986;SDS011;4529;51.360;12.474;2023-03-14T16:17:15;1.37;;;0.70;;
8986;SDS011;4529;51.360;12.474;2023-03-14T16:22:18;0.60;;;0.60;;
8986;SDS011;4529;51.360;12.474;2023-03-14T16:27:22;0.93;;;0.60;;
8986;SDS011;4529;51.360;12.474;2023-03-14T16:32:26;0.70;;;0.70;;
8986;SDS011;4529;51.360;12.474;2023-03-14T16:37:29;1.00;;;1.00;;
8986;SDS011;4529;51.360;12.474;2023-03-14T16:42:33;1.00;;;1.00;;
8986;SDS011;4529;51.360;12.474;2023-03-14T16:47:36;1.67;;;1.20;;
8986;SDS011;4529;51.360;12.474;2023-03-14T16:52:40;4.47;;;2.93;;
8986;SDS011;4529;51.360;12.474;2023-03-14T16:57:43;7.00;;;2.00;;
8986;SDS011;4529;51.360;12.474;2023-03-14T17:02:47;3.43;;;1.87;;
8986;SDS011;4529;51.360;12.474;2023-03-14T17:07:51;2.47;;;1.77;;
8986;SDS011;4529;51.360;12.474;2023-03-14T17:12:55;1.93;;;1.30;;
8986;SDS011;4529;51.360;12.474;2023-03-14T17:17:58;2.20;;;1.50;;
8986;SDS011;4529;51.360;12.474;2023-03-14T17:23:07;3.73;;;1.63;;
8986;SDS011;4529;51.360;12.474;2023-03-14T17:28:10;4.50;;;1.60;;
8986;SDS011;4529;51.360;12.474;2023-03-14T17:33:14;3.27;;;1.50;;
8986;SDS011;4529;51.360;12.474;2023-03-14T17:38:18;3.60;;;1.60;;
8986;SDS011;4529;51.360;12.474;2023-03-14T17:43:23;6.47;;;1.80;;
8986;SDS011;4529;51.360;12.474;2023-03-14T17:48:26;3.07;;;1.47;;
8986;SDS011;4529;51.360;12.474;2023-03-14T17:53:30;4.43;;;1.50;;
8986;SDS011;4529;51.360;12.474;2023-03-14T17:58:33;2.90;;;1.80;;
8986;SDS011;4529;51.360;12.474;2023-03-14T18:03:37;4.70;;;1.80;;
8986;SDS011;4529;51.360;12.474;2023-03-14T18:08:41;3.40;;;1.40;;
8986;SDS011;4529;51.360;12.474;2023-03-14T18:13:45;5.00;;;1.57;;
8986;SDS011;4529;51.360;12.474;2023-03-14T18:18:50;4.93;;;1.67;;
8986;SDS011;4529;51.360;12.474;2023-03-14T18:23:54;4.73;;;1.67;;
8986;SDS011;4529;51.360;12.474;2023-03-14T18:28:57;8.00;;;1.70;;
8986;SDS011;4529;51.360;12.474;2023-03-14T18:34:01;4.63;;;1.40;;
8986;SDS011;4529;51.360;12.474;2023-03-14T18:39:05;5.30;;;1.60;;
8986;SDS011;4529;51.360;12.474;2023-03-14T18:44:09;7.80;;;2.00;;
8986;SDS011;4529;51.360;12.474;2023-03-14T18:49:12;7.17;;;3.60;;
8986;SDS011;4529;51.360;12.474;2023-03-14T18:54:19;6.60;;;1.60;;
8986;SDS011;4529;51.360;12.474;2023-03-14T18:59:22;6.50;;;1.70;;
8986;SDS011;4529;51.360;12.474;2023-03-14T19:04:27;6.73;;;2.00;;
8986;SDS011;4529;51.360;12.474;2023-03-14T19:09:31;7.70;;;2.33;;
8986;SDS011;4529;51.360;12.474;2023-03-14T19:14:34;5.30;;;2.00;;
8986;SDS011;4529;51.360;12.474;2023-03-14T19:19:38;6.30;;;1.90;;
8986;SDS011;4529;51.360;12.474;2023-03-14T19:24:41;5.57;;;2.07;;
8986;SDS011;4529;51.360;12.474;2023-03-14T19:29:45;7.40;;;1.90;;
8986;SDS011;4529;51.360;12.474;2023-03-14T19:34:49;8.13;;;2.10;;
8986;SDS011;4529;51.360;12.474;2023-03-14T19:39:53;8.23;;;2.30;;
8986;SDS011;4529;51.360;12.474;2023-03-14T19:44:58;9.60;;;2.17;;
8986;SDS011;4529;51.360;12.474;2023-03-14T19:50:01;4.10;;;2.00;;
8986;SDS011;4529;51.360;12.474;2023-03-14T19:55:04;6.80;;;2.17;;
8986;SDS011;4529;51.360;12.474;2023-03-14T20:00:08;4.67;;;1.70;;
8986;SDS011;4529;51.360;12.474;2023-03-14T20:05:11;5.03;;;1.70;;
8986;SDS011;4529;51.360;12.474;2023-03-14T20:10:15;2.87;;;2.30;;
8986;SDS011;4529;51.360;12.474;2023-03-14T20:15:18;5.40;;;2.00;;
8986;SDS011;4529;51.360;12.474;2023-03-14T20:20:21;5.07;;;1.80;;
8986;SDS011;4529;51.360;12.474;2023-03-14T20:25:25;4.77;;;2.20;;
8986;SDS011;4529;51.360;12.474;2023-03-14T20:30:29;9.37;;;2.00;;
8986;SDS011;4529;51.360;12.474;2023-03-14T20:35:32;7.30;;;1.70;;
8986;SDS011;4529;51.360;12.474;2023-03-14T20:40:36;9.10;;;2.10;;
8986;SDS011;4529;51.360;12.474;2023-03-14T20:45:39;3.83;;;1.67;;
8986;SDS011;4529;51.360;12.474;2023-03-14T20:50:44;6.70;;;1.63;;
8986;SDS011;4529;51.360;12.474;2023-03-14T20:55:46;6.37;;;1.90;;
8986;SDS011;4529;51.360;12.474;2023-03-14T21:00:50;5.90;;;1.70;;
8986;SDS011;4529;51.360;12.474;2023-03-14T21:05:54;6.90;;;2.00;;
8986;SDS011;4529;51.360;12.474;2023-03-14T21:10:57;5.63;;;1.60;;
8986;SDS011;4529;51.360;12.474;2023-03-14T21:16:01;8.13;;;1.67;;
8986;SDS011;4529;51.360;12.474;2023-03-14T21:21:04;4.40;;;1.87;;
8986;SDS011;4529;51.360;12.474;2023-03-14T21:26:08;3.50;;;1.70;;
8986;SDS011;4529;51.360;12.474;2023-03-14T21:31:12;5.43;;;1.87;;
8986;SDS011;4529;51.360;12.474;2023-03-14T21:36:16;5.77;;;1.73;;
8986;SDS011;4529;51.360;12.474;2023-03-14T21:41:19;7.33;;;2.07;;
8986;SDS011;4529;51.360;12.474;2023-03-14T21:46:23;6.13;;;1.70;;
8986;SDS011;4529;51.360;12.474;2023-03-14T21:51:27;8.83;;;2.23;;
8986;SDS011;4529;51.360;12.474;2023-03-14T21:56:31;5.67;;;2.17;;
8986;SDS011;4529;51.360;12.474;2023-03-14T22:01:35;3.80;;;1.80;;
8986;SDS011;4529;51.360;12.474;2023-03-14T22:06:39;8.17;;;1.57;;
8986;SDS011;4529;51.360;12.474;2023-03-14T22:11:43;11.03;;;2.07;;
8986;SDS011;4529;51.360;12.474;2023-03-14T22:16:46;5.20;;;1.63;;
8986;SDS011;4529;51.360;12.474;2023-03-14T22:21:50;7.50;;;1.73;;
8986;SDS011;4529;51.360;12.474;2023-03-14T22:26:54;4.90;;;1.60;;
8986;SDS011;4529;51.360;12.474;2023-03-14T22:31:58;3.77;;;1.47;;
8986;SDS011;4529;51.360;12.474;2023-03-14T22:37:03;9.27;;;1.90;;
8986;SDS011;4529;51.360;12.474;2023-03-14T22:42:07;2.57;;;1.50;;
8986;SDS011;4529;51.360;12.474;2023-03-14T22:47:10;8.57;;;1.80;;
8986;SDS011;4529;51.360;12.474;2023-03-14T22:52:14;4.67;;;1.70;;
8986;SDS011;4529;51.360;12.474;2023-03-14T22:57:21;5.77;;;1.70;;
8986;SDS011;4529;51.360;12.474;2023-03-14T23:02:24;4.50;;;1.57;;
8986;SDS011;4529;51.360;12.474;2023-03-14T23:07:28;5.03;;;1.57;;
8986;SDS011;4529;51.360;12.474;2023-03-14T23:12:33;4.83;;;1.67;;
8986;SDS011;4529;51.360;12.474;2023-03-14T23:17:36;4.80;;;1.43;;
8986;SDS011;4529;51.360;12.474;2023-03-14T23:22:39;8.23;;;1.70;;
8986;SDS011;4529;51.360;12.474;2023-03-14T23:27:43;3.17;;;1.30;;
8986;SDS011;4529;51.360;12.474;2023-03-14T23:32:47;5.00;;;1.40;;
8986;SDS011;4529;51.360;12.474;2023-03-14T23:37:51;6.60;;;1.60;;
8986;SDS011;4529;51.360;12.474;2023-03-14T23:42:55;2.40;;;1.60;;
8986;SDS011;4529;51.360;12.474;2023-03-14T23:48:00;4.97;;;1.60;;
8986;SDS011;4529;51.360;12.474;2023-03-14T23:53:04;3.30;;;1.33;;
8986;SDS011;4529;51.360;12.474;2023-03-14T23:58:08;6.67;;;1.80;;
